createdAt,value
2022-08-25T00:01:19.707Z,6.82
2022-08-25T00:03:47.748Z,7.30
2022-08-25T00:06:15.863Z,6.30
2022-08-25T00:08:43.676Z,7.07
2022-08-25T00:11:15.612Z,6.65
2022-08-25T00:13:48.927Z,7.20
2022-08-25T00:16:17.932Z,6.63
2022-08-25T00:18:48.189Z,6.43
2022-08-25T00:21:16.105Z,6.47
2022-08-25T00:23:45.332Z,7.30
2022-08-25T00:26:13.615Z,7.20
2022-08-25T00:28:40.273Z,7.93
2022-08-25T00:31:11.122Z,7.25
2022-08-25T00:33:38.101Z,7.87
2022-08-25T00:36:04.934Z,7.15
2022-08-25T00:38:31.921Z,7.40
2022-08-25T00:41:07.914Z,7.60
2022-08-25T00:43:55.385Z,6.95
2022-08-25T00:46:26.061Z,7.75
2022-08-25T00:49:00.506Z,7.28
2022-08-25T00:52:01.289Z,7.75
2022-08-25T00:54:39.319Z,7.72
2022-08-25T00:57:08.384Z,7.22
2022-08-25T00:59:35.700Z,7.78
2022-08-25T01:02:04.465Z,7.22
2022-08-25T01:04:32.400Z,7.78
2022-08-25T01:07:00.804Z,7.40
2022-08-25T01:09:32.065Z,7.93
2022-08-25T01:14:27.392Z,8.35
2022-08-25T01:16:54.825Z,7.15
2022-08-25T01:19:22.137Z,7.93
2022-08-25T01:21:51.796Z,8.15
2022-08-25T01:24:41.728Z,7.78
2022-08-25T01:27:09.277Z,7.22
2022-08-25T01:29:37.025Z,7.22
2022-08-25T01:32:08.371Z,7.75
2022-08-25T01:34:38.040Z,8.32
2022-08-25T01:37:05.256Z,7.88
2022-08-25T01:39:34.073Z,7.63
2022-08-25T01:42:06.496Z,8.30
2022-08-25T01:44:36.063Z,7.57
2022-08-25T01:47:04.205Z,7.25
2022-08-25T01:49:30.877Z,7.90
2022-08-25T01:52:06.561Z,8.13
2022-08-25T01:54:33.384Z,7.72
2022-08-25T01:56:59.993Z,8.10
2022-08-25T01:59:27.628Z,7.53
2022-08-25T02:01:59.742Z,7.35
2022-08-25T02:04:29.572Z,8.00
2022-08-25T02:06:56.265Z,7.70
2022-08-25T02:09:23.211Z,7.50
2022-08-25T02:11:50.066Z,8.38
2022-08-25T02:14:18.331Z,8.13
2022-08-25T02:16:48.977Z,8.43
2022-08-25T02:19:16.323Z,7.88
2022-08-25T02:21:43.558Z,8.18
2022-08-25T02:24:12.062Z,8.38
2022-08-25T02:26:38.813Z,8.48
2022-08-25T02:29:07.451Z,8.00
2022-08-25T02:31:35.169Z,8.68
2022-08-25T02:34:02.490Z,8.00
2022-08-25T02:36:30.636Z,9.15
2022-08-25T02:38:57.297Z,8.55
2022-08-25T02:41:31.128Z,8.65
2022-08-25T02:43:59.253Z,8.48
2022-08-25T02:46:26.795Z,10.48
2022-08-25T02:48:53.661Z,9.75
2022-08-25T02:51:22.801Z,9.25
2022-08-25T02:53:50.056Z,9.73
2022-08-25T02:56:18.305Z,10.35
2022-08-25T02:58:46.021Z,10.68
2022-08-25T03:01:14.228Z,9.30
2022-08-25T03:03:42.251Z,10.52
2022-08-25T03:06:16.155Z,9.90
2022-08-25T03:08:43.377Z,11.93
2022-08-25T03:11:10.813Z,10.68
2022-08-25T03:13:38.335Z,11.15
2022-08-25T03:16:11.103Z,10.70
2022-08-25T03:18:40.355Z,9.98
2022-08-25T03:21:07.586Z,10.90
2022-08-25T03:23:34.447Z,10.93
2022-08-25T03:26:20.920Z,10.27
2022-08-25T03:28:47.652Z,11.05
2022-08-25T03:31:14.424Z,11.13
2022-08-25T03:33:41.271Z,11.48
2022-08-25T03:36:08.700Z,11.25
2022-08-25T03:38:38.336Z,10.20
2022-08-25T03:41:17.192Z,11.75
2022-08-25T03:43:44.200Z,10.48
2022-08-25T03:46:26.857Z,11.05
2022-08-25T03:48:54.316Z,10.50
2022-08-25T03:51:30.168Z,10.82
2022-08-25T03:53:59.035Z,11.60
2022-08-25T03:56:27.507Z,10.70
2022-08-25T03:58:55.664Z,9.70
2022-08-25T04:01:23.128Z,9.57
2022-08-25T04:03:50.291Z,10.50
2022-08-25T04:06:18.861Z,10.88
2022-08-25T04:08:45.964Z,10.82
2022-08-25T04:11:15.967Z,10.90
2022-08-25T04:13:42.704Z,9.85
2022-08-25T04:16:14.298Z,10.85
2022-08-25T04:18:42.240Z,10.55
2022-08-25T04:21:11.020Z,10.70
2022-08-25T04:23:40.704Z,10.77
2022-08-25T04:26:16.474Z,10.20
2022-08-25T04:28:43.130Z,12.07
2022-08-25T04:31:12.203Z,11.85
2022-08-25T04:33:39.193Z,11.02
2022-08-25T04:36:11.413Z,12.77
2022-08-25T04:38:41.073Z,12.25
2022-08-25T04:41:09.057Z,13.38
2022-08-25T04:43:37.353Z,11.40
2022-08-25T04:46:20.200Z,12.07
2022-08-25T04:48:49.183Z,10.52
2022-08-25T04:51:19.150Z,11.80
2022-08-25T04:53:46.199Z,11.50
2022-08-25T04:56:15.636Z,12.63
2022-08-25T04:58:42.826Z,12.10
2022-08-25T05:01:15.953Z,12.10
2022-08-25T05:03:43.473Z,11.95
2022-08-25T05:06:15.306Z,12.32
2022-08-25T05:08:42.840Z,11.85
2022-08-25T05:11:17.319Z,11.68
2022-08-25T05:13:51.571Z,12.25
2022-08-25T05:16:19.461Z,12.13
2022-08-25T05:18:46.322Z,10.77
2022-08-25T05:21:15.963Z,10.88
2022-08-25T05:23:43.445Z,12.10
2022-08-25T05:26:20.478Z,12.02
2022-08-25T05:28:50.442Z,11.90
2022-08-25T05:31:18.877Z,11.30
2022-08-25T05:33:45.747Z,12.40
2022-08-25T05:36:14.709Z,11.07
2022-08-25T05:38:41.995Z,12.57
2022-08-25T05:41:16.341Z,12.25
2022-08-25T05:43:44.936Z,12.00
2022-08-25T05:46:13.033Z,11.20
2022-08-25T05:48:40.233Z,12.32
2022-08-25T05:51:10.181Z,11.50
2022-08-25T05:53:39.368Z,12.45
2022-08-25T05:56:06.493Z,13.35
2022-08-25T05:58:33.753Z,13.23
2022-08-25T06:01:21.415Z,14.02
2022-08-25T06:03:49.211Z,13.30
2022-08-25T06:06:16.493Z,14.75
2022-08-25T06:08:44.499Z,17.05
2022-08-25T06:11:13.057Z,16.35
2022-08-25T06:13:40.695Z,16.10
2022-08-25T06:16:07.716Z,15.93
2022-08-25T06:18:34.472Z,16.65
2022-08-25T06:21:08.957Z,16.08
2022-08-25T06:23:37.053Z,16.38
2022-08-25T06:26:03.889Z,20.30
2022-08-25T06:28:30.520Z,18.38
2022-08-25T06:31:01.633Z,20.02
2022-08-25T06:33:28.280Z,19.88
2022-08-25T06:35:56.396Z,20.00
2022-08-25T06:38:23.838Z,19.67
2022-08-25T06:40:52.103Z,19.05
2022-08-25T06:43:20.736Z,19.40
2022-08-25T06:45:48.463Z,18.70
2022-08-25T06:48:15.835Z,17.58
2022-08-25T06:50:43.523Z,17.88
2022-08-25T06:53:10.245Z,18.40
2022-08-25T06:55:37.280Z,16.73
2022-08-25T06:58:05.206Z,16.27
2022-08-25T07:00:33.355Z,17.25
2022-08-25T07:03:01.449Z,16.20
2022-08-25T07:05:40.845Z,15.40
2022-08-25T07:08:11.873Z,16.45
2022-08-25T07:10:38.997Z,16.83
2022-08-25T07:13:05.759Z,16.65
2022-08-25T07:15:35.344Z,16.25
2022-08-25T07:18:14.856Z,17.38
2022-08-25T07:20:49.829Z,16.27
2022-08-25T07:23:16.868Z,16.90
2022-08-25T07:25:44.407Z,17.30
2022-08-25T07:28:13.531Z,16.30
2022-08-25T07:30:51.839Z,16.95
2022-08-25T07:33:20.305Z,16.55
2022-08-25T07:35:47.301Z,16.45
2022-08-25T07:38:20.753Z,16.35
2022-08-25T07:40:54.627Z,16.55
2022-08-25T07:43:23.821Z,16.63
2022-08-25T07:45:50.715Z,19.00
2022-08-25T07:48:20.059Z,17.10
2022-08-25T07:50:48.209Z,16.65
2022-08-25T07:53:17.211Z,18.33
2022-08-25T07:55:45.091Z,19.02
2022-08-25T07:58:13.972Z,19.13
2022-08-25T08:00:42.354Z,18.38
2022-08-25T08:03:19.956Z,19.45
2022-08-25T08:05:57.574Z,18.70
2022-08-25T08:08:24.536Z,17.92
2022-08-25T08:11:04.175Z,18.83
2022-08-25T08:13:36.760Z,19.08
2022-08-25T08:16:11.483Z,17.65
2022-08-25T08:18:40.282Z,17.95
2022-08-25T08:21:19.918Z,16.70
2022-08-25T08:23:49.299Z,17.10
2022-08-25T08:26:17.262Z,18.10
2022-08-25T08:28:44.426Z,15.75
2022-08-25T08:31:21.674Z,16.70
2022-08-25T08:33:51.322Z,16.30
2022-08-25T08:36:19.183Z,16.33
2022-08-25T08:38:47.926Z,16.90
2022-08-25T08:42:10.982Z,16.25
2022-08-25T08:44:45.099Z,16.30
2022-08-25T08:47:40.566Z,16.10
2022-08-25T08:50:29.559Z,15.02
2022-08-25T08:53:14.155Z,16.65
2022-08-25T08:55:57.282Z,14.88
2022-08-25T08:58:36.581Z,15.75
2022-08-25T09:01:03.397Z,15.82
2022-08-25T09:03:40.764Z,16.17
2022-08-25T09:06:12.812Z,15.82
2022-08-25T09:08:44.884Z,16.25
2022-08-25T09:11:23.286Z,15.07
2022-08-25T09:14:10.617Z,14.65
2022-08-25T09:16:55.500Z,16.40
2022-08-25T09:19:23.551Z,14.10
2022-08-25T09:22:34.865Z,15.15
2022-08-25T09:28:40.869Z,14.40
2022-08-25T09:31:26.432Z,15.48
2022-08-25T09:33:58.465Z,14.02
2022-08-25T09:36:25.958Z,13.82
2022-08-25T09:38:53.280Z,12.00
2022-08-25T09:41:43.027Z,12.30
2022-08-25T09:44:24.309Z,13.45
2022-08-25T09:47:18.607Z,15.50
2022-08-25T09:49:49.449Z,13.82
2022-08-25T09:52:33.150Z,13.05
2022-08-25T09:55:02.493Z,11.98
2022-08-25T09:57:44.545Z,11.50
2022-08-25T10:00:22.274Z,10.43
2022-08-25T10:03:10.031Z,9.90
2022-08-25T10:06:03.499Z,10.63
2022-08-25T10:08:40.884Z,9.18
2022-08-25T10:11:15.772Z,9.30
2022-08-25T10:13:51.501Z,9.15
2022-08-25T10:16:34.140Z,8.65
2022-08-25T10:19:21.649Z,9.45
2022-08-25T10:22:04.762Z,9.23
2022-08-25T10:24:31.659Z,8.57
2022-08-25T10:27:04.062Z,8.30
2022-08-25T10:29:42.235Z,8.18
2022-08-25T10:32:49.474Z,8.57
2022-08-25T10:35:20.497Z,7.78
2022-08-25T10:37:47.238Z,6.63
2022-08-25T10:40:21.895Z,7.32
2022-08-25T10:43:08.086Z,7.20
2022-08-25T10:45:51.486Z,6.78
2022-08-25T10:48:34.785Z,7.03
2022-08-25T10:51:43.328Z,8.02
2022-08-25T10:54:26.800Z,7.22
2022-08-25T10:57:01.920Z,7.18
2022-08-25T10:59:31.780Z,6.88
2022-08-25T11:02:33.512Z,6.32
2022-08-25T11:05:07.553Z,6.07
2022-08-25T11:07:38.445Z,6.53
2022-08-25T11:10:15.492Z,6.50
2022-08-25T11:12:53.144Z,5.78
2022-08-25T11:15:21.153Z,6.20
2022-08-25T11:17:58.532Z,7.10
2022-08-25T11:20:33.661Z,6.88
2022-08-25T11:23:15.476Z,6.60
2022-08-25T11:25:49.279Z,6.20
2022-08-25T11:28:35.804Z,7.18
2022-08-25T11:31:04.015Z,6.20
2022-08-25T11:33:33.245Z,6.15
2022-08-25T11:36:19.797Z,7.10
2022-08-25T11:38:50.233Z,6.03
2022-08-25T11:41:49.637Z,6.15
2022-08-25T11:44:38.440Z,6.35
2022-08-25T11:47:34.662Z,6.90
2022-08-25T11:50:06.381Z,6.00
2022-08-25T11:52:32.992Z,6.47
2022-08-25T11:55:15.651Z,6.95
2022-08-25T11:57:44.777Z,6.30
2022-08-25T12:00:36.070Z,6.57
2022-08-25T12:03:36.844Z,5.78
2022-08-25T12:06:30.217Z,6.03
2022-08-25T12:09:00.034Z,6.30
2022-08-25T12:11:39.899Z,6.50
2022-08-25T12:14:28.179Z,5.80
2022-08-25T12:16:55.229Z,5.80
2022-08-25T12:19:37.035Z,6.45
2022-08-25T12:22:04.840Z,6.45
2022-08-25T12:24:47.546Z,6.80
2022-08-25T12:27:33.853Z,6.28
2022-08-25T12:30:20.656Z,6.25
2022-08-25T12:32:47.928Z,6.45
2022-08-25T12:35:40.504Z,6.82
2022-08-25T12:38:10.233Z,6.43
2022-08-25T12:40:45.452Z,6.28
2022-08-25T12:43:37.618Z,6.05
2022-08-25T12:46:20.056Z,6.10
2022-08-25T12:48:56.447Z,6.57
2022-08-25T12:51:41.096Z,6.60
2022-08-25T12:54:53.104Z,6.30
2022-08-25T12:57:34.564Z,6.07
2022-08-25T13:00:16.580Z,6.13
2022-08-25T13:03:04.165Z,6.03
2022-08-25T13:05:48.240Z,5.60
2022-08-25T13:08:20.897Z,5.22
2022-08-25T13:10:56.137Z,5.75
2022-08-25T13:13:50.912Z,6.22
2022-08-25T13:16:29.379Z,5.82
2022-08-25T13:18:59.437Z,5.78
2022-08-25T13:21:41.696Z,5.88
2022-08-25T13:24:29.764Z,5.75
2022-08-25T13:27:06.349Z,5.95
2022-08-25T13:29:37.498Z,6.00
2022-08-25T13:32:14.261Z,5.22
2022-08-25T13:34:43.166Z,5.78
2022-08-25T13:37:29.591Z,5.78
2022-08-25T13:40:15.801Z,5.93
2022-08-25T13:42:52.959Z,5.68
2022-08-25T13:45:31.709Z,6.32
2022-08-25T13:47:59.240Z,6.40
2022-08-25T13:50:26.505Z,5.65
2022-08-25T13:53:00.741Z,5.78
2022-08-25T13:55:51.507Z,6.63
2022-08-25T13:58:38.668Z,5.32
2022-08-25T14:01:22.975Z,5.88
2022-08-25T14:04:24.277Z,6.22
2022-08-25T14:07:14.318Z,5.97
2022-08-25T14:09:51.768Z,5.43
2022-08-25T14:12:29.796Z,5.07
2022-08-25T14:15:13.803Z,5.53
2022-08-25T14:17:43.944Z,6.13
2022-08-25T14:20:27.176Z,6.22
2022-08-25T14:22:58.309Z,5.55
2022-08-25T14:25:28.102Z,5.97
2022-08-25T14:28:06.653Z,5.43
2022-08-25T14:30:36.449Z,6.13
2022-08-25T14:33:04.159Z,6.05
2022-08-25T14:35:36.778Z,5.70
2022-08-25T14:38:10.149Z,5.25
2022-08-25T14:40:37.866Z,5.70
2022-08-25T14:43:04.733Z,5.85
2022-08-25T14:45:40.058Z,5.88
2022-08-25T14:48:10.830Z,5.32
2022-08-25T14:50:41.897Z,5.40
2022-08-25T14:53:10.365Z,5.40
2022-08-25T14:55:37.821Z,5.32
2022-08-25T14:58:06.827Z,6.15
2022-08-25T15:00:37.545Z,5.65
2022-08-25T15:03:04.605Z,5.25
2022-08-25T15:05:31.948Z,6.07
2022-08-25T15:08:17.403Z,5.60
2022-08-25T15:10:44.345Z,5.30
2022-08-25T15:13:11.092Z,5.15
2022-08-25T15:15:52.949Z,5.78
2022-08-25T15:18:21.600Z,5.22
2022-08-25T15:20:50.090Z,5.05
2022-08-25T15:23:18.552Z,5.35
2022-08-25T15:25:47.621Z,4.90
2022-08-25T15:28:17.375Z,5.45
2022-08-25T15:30:45.708Z,5.25
2022-08-25T15:33:13.283Z,5.95
2022-08-25T15:35:40.546Z,5.47
2022-08-25T15:38:08.306Z,5.20
2022-08-25T15:40:37.681Z,5.93
2022-08-25T15:43:05.755Z,5.63
2022-08-25T15:45:36.241Z,5.00
2022-08-25T15:48:04.439Z,5.60
2022-08-25T15:50:33.694Z,5.23
2022-08-25T15:53:00.574Z,4.63
2022-08-25T15:55:27.542Z,6.50
2022-08-25T15:57:55.440Z,5.50
2022-08-25T16:00:22.924Z,6.32
2022-08-25T16:02:50.304Z,5.85
2022-08-25T16:05:18.020Z,5.30
2022-08-25T16:07:51.598Z,5.95
2022-08-25T16:12:45.481Z,4.97
2022-08-25T16:15:12.451Z,5.43
2022-08-25T16:17:40.721Z,5.85
2022-08-25T16:20:13.913Z,5.85
2022-08-25T16:22:41.289Z,5.82
2022-08-25T16:25:10.759Z,5.60
2022-08-25T16:27:38.815Z,5.30
2022-08-25T16:30:08.039Z,6.22
2022-08-25T16:32:34.967Z,5.55
2022-08-25T16:35:03.104Z,5.50
2022-08-25T16:37:30.105Z,5.63
2022-08-25T16:39:57.557Z,5.45
2022-08-25T16:42:24.528Z,5.38
2022-08-25T16:44:53.815Z,5.82
2022-08-25T16:47:26.879Z,6.22
2022-08-25T16:49:53.928Z,5.93
2022-08-25T16:52:39.090Z,5.20
2022-08-25T16:55:14.361Z,5.63
2022-08-25T16:57:49.872Z,6.55
2022-08-25T17:00:19.315Z,6.18
2022-08-25T17:02:46.362Z,5.72
2022-08-25T17:05:14.137Z,5.70
2022-08-25T17:07:40.893Z,6.05
2022-08-25T17:10:12.794Z,7.00
2022-08-25T17:12:40.473Z,5.88
2022-08-25T17:15:07.646Z,6.53
2022-08-25T17:17:36.375Z,6.22
2022-08-25T17:20:04.828Z,5.85
2022-08-25T17:22:31.714Z,6.88
2022-08-25T17:25:00.854Z,6.65
2022-08-25T17:27:28.751Z,5.35
2022-08-25T17:29:55.938Z,6.38
2022-08-25T17:32:28.985Z,6.97
2022-08-25T17:34:57.798Z,6.15
2022-08-25T17:37:24.726Z,7.10
2022-08-25T17:40:02.513Z,6.75
2022-08-25T17:42:31.703Z,7.15
2022-08-25T17:44:58.390Z,6.68
2022-08-25T17:47:27.173Z,6.32
2022-08-25T17:49:54.268Z,6.68
2022-08-25T17:52:25.501Z,6.57
2022-08-25T17:54:52.707Z,6.70
2022-08-25T17:57:19.763Z,7.25
2022-08-25T17:59:48.016Z,6.82
2022-08-25T18:02:14.753Z,6.85
2022-08-25T18:04:41.508Z,7.35
2022-08-25T18:07:08.175Z,6.82
2022-08-25T18:09:35.441Z,7.03
2022-08-25T18:12:02.376Z,7.18
2022-08-25T18:14:30.149Z,6.82
2022-08-25T18:16:57.104Z,7.68
2022-08-25T18:19:23.752Z,7.20
2022-08-25T18:21:52.530Z,8.40
2022-08-25T18:24:19.478Z,7.78
2022-08-25T18:26:47.031Z,7.40
2022-08-25T18:29:14.103Z,7.55
2022-08-25T18:31:45.841Z,7.28
2022-08-25T18:34:15.087Z,6.97
2022-08-25T18:36:41.810Z,7.75
2022-08-25T18:39:31.506Z,7.80
2022-08-25T18:42:01.814Z,7.13
2022-08-25T18:44:29.696Z,7.40
2022-08-25T18:46:56.892Z,7.22
2022-08-25T18:49:26.788Z,7.55
2022-08-25T18:51:55.452Z,7.88
2022-08-25T18:54:23.563Z,8.18
2022-08-25T18:56:51.605Z,7.93
2022-08-25T18:59:19.200Z,8.48
2022-08-25T19:01:46.240Z,7.55
2022-08-25T19:04:15.026Z,8.80
2022-08-25T19:06:43.890Z,8.15
2022-08-25T19:09:11.148Z,7.65
2022-08-25T19:11:38.322Z,8.63
2022-08-25T19:14:08.077Z,8.07
2022-08-25T19:16:42.475Z,8.80
2022-08-25T19:19:13.248Z,9.77
2022-08-25T19:21:41.715Z,10.35
2022-08-25T19:24:09.600Z,9.68
2022-08-25T19:26:37.069Z,9.05
2022-08-25T19:29:10.669Z,10.23
2022-08-25T19:31:39.297Z,9.50
2022-08-25T19:34:08.791Z,11.27
2022-08-25T19:36:35.838Z,13.25
2022-08-25T19:39:04.947Z,12.70
2022-08-25T19:41:32.153Z,11.70
2022-08-25T19:44:01.616Z,11.23
2022-08-25T19:46:35.552Z,10.15
2022-08-25T19:49:08.098Z,10.30
2022-08-25T19:51:41.317Z,9.48
2022-08-25T19:54:13.471Z,9.80
2022-08-25T19:56:43.811Z,9.57
2022-08-25T19:59:40.435Z,10.18
2022-08-25T20:02:15.377Z,10.18
2022-08-25T20:04:49.394Z,10.02
2022-08-25T20:07:17.894Z,9.45
2022-08-25T20:09:45.304Z,9.60
2022-08-25T20:12:12.556Z,9.13
2022-08-25T20:14:39.892Z,10.43
2022-08-25T20:17:23.441Z,10.40
2022-08-25T20:19:54.306Z,11.00
2022-08-25T20:22:25.861Z,10.30
2022-08-25T20:24:55.763Z,10.68
2022-08-25T20:27:26.125Z,10.10
2022-08-25T20:29:53.530Z,9.35
2022-08-25T20:32:20.329Z,10.02
2022-08-25T20:34:48.777Z,10.43
2022-08-25T20:37:16.614Z,9.80
2022-08-25T20:39:43.365Z,9.52
2022-08-25T20:42:10.544Z,10.55
2022-08-25T20:44:41.909Z,9.90
2022-08-25T20:49:39.429Z,10.38
2022-08-25T20:52:07.452Z,10.63
2022-08-25T20:54:34.402Z,11.30
2022-08-25T20:57:02.547Z,10.57
2022-08-25T20:59:30.042Z,10.23
2022-08-25T21:01:58.361Z,11.15
2022-08-25T21:04:32.527Z,11.02
2022-08-25T21:07:03.093Z,9.95
2022-08-25T21:09:32.269Z,10.52
2022-08-25T21:11:59.754Z,10.13
2022-08-25T21:14:26.490Z,10.48
2022-08-25T21:16:55.193Z,11.43
2022-08-25T21:19:26.575Z,10.70
2022-08-25T21:21:59.568Z,11.23
2022-08-25T21:24:28.602Z,11.30
2022-08-25T21:26:59.770Z,10.95
2022-08-25T21:29:28.746Z,11.88
2022-08-25T21:31:56.981Z,12.00
2022-08-25T21:34:23.880Z,10.63
2022-08-25T21:36:51.405Z,10.93
2022-08-25T21:39:19.299Z,11.10
2022-08-25T21:41:46.111Z,10.65
2022-08-25T21:44:13.805Z,10.90
2022-08-25T21:46:41.503Z,11.00
2022-08-25T21:49:18.603Z,10.98
2022-08-25T21:51:46.637Z,10.73
2022-08-25T21:54:16.827Z,11.82
2022-08-25T21:56:48.777Z,11.73
2022-08-25T22:01:45.297Z,12.68
2022-08-25T22:04:13.947Z,12.45
2022-08-25T22:06:41.126Z,12.40
2022-08-25T22:09:12.889Z,10.95
2022-08-25T22:11:42.785Z,11.43
2022-08-25T22:14:11.187Z,12.52
2022-08-25T22:16:38.617Z,11.48
2022-08-25T22:19:07.537Z,11.25
2022-08-25T22:21:35.174Z,12.18
2022-08-25T22:24:02.600Z,13.48
2022-08-25T22:26:32.039Z,12.57
2022-08-25T22:29:00.023Z,12.05
2022-08-25T22:31:27.789Z,12.50
2022-08-25T22:33:57.759Z,12.20
2022-08-25T22:36:33.385Z,11.90
2022-08-25T22:39:00.695Z,11.45
2022-08-25T22:41:29.594Z,11.55
2022-08-25T22:43:57.630Z,12.40
2022-08-25T22:46:27.940Z,10.93
2022-08-25T22:48:56.503Z,13.25
2022-08-25T22:51:26.074Z,11.35
2022-08-25T22:53:53.909Z,12.38
2022-08-25T22:56:35.751Z,12.55
2022-08-25T22:59:07.923Z,11.95
2022-08-25T23:01:35.079Z,12.02
2022-08-25T23:04:03.170Z,10.90
2022-08-25T23:06:31.456Z,11.25
2022-08-25T23:08:59.018Z,11.40
2022-08-25T23:11:26.133Z,11.40
2022-08-25T23:13:57.403Z,11.50
2022-08-25T23:16:24.474Z,11.75
2022-08-25T23:18:52.129Z,11.18
2022-08-25T23:21:40.764Z,11.30
2022-08-25T23:24:10.604Z,11.68
2022-08-25T23:26:42.446Z,12.52
2022-08-25T23:29:18.669Z,11.55
2022-08-25T23:31:47.732Z,11.82
2022-08-25T23:34:16.641Z,11.93
2022-08-25T23:36:44.153Z,11.80
2022-08-25T23:39:11.574Z,11.40
2022-08-25T23:41:39.074Z,11.85
2022-08-25T23:44:09.187Z,10.73
2022-08-25T23:46:39.548Z,12.07
2022-08-25T23:49:08.326Z,11.07
2022-08-25T23:51:38.493Z,11.32
2022-08-25T23:54:09.247Z,11.07
2022-08-25T23:56:36.554Z,10.90
2022-08-25T23:59:10.762Z,10.48
